Overview Statistics Trail Chart Weather Telemetry Raw packets
 

This is the latest recevied weather packets stored in our database for station/object K9MWD. If no packets are shown the sender has not sent any weather packets the latest 10 day(s).

<< 84 85 86 87 88 89 90 >>
Time Temp. Humidity Pressure Rain* Wind** Luminosity Snow
1788016639 32.22° C 57% 1018.3 hPa 0 mm - 547 W/m² -
1788016338 31.67° C 59% 1018.4 hPa 0 mm - 530 W/m² -
1788016038 30.56° C 61% 1018.3 hPa 0 mm - 515 W/m² -
1788015737 30.56° C 62% 1018.4 hPa 0 mm - 499 W/m² -
1788015432 30.56° C 63% 1018.4 hPa 0 mm - 481 W/m² -
1788015127 31.11° C 60% 1018.3 hPa 0 mm - 464 W/m² -
1788014826 30.56° C 62% 1018.3 hPa 0 mm - 448 W/m² -
1788014526 30° C 62% 1018.4 hPa 0 mm - 406 W/m² -
1788014221 28.89° C 67% 1018.2 hPa 0 mm - 409 W/m² -
1788013921 28.89° C 66% 1018.4 hPa 0 mm - 391 W/m² -
1788013615 29.44° C 66% 1018.6 hPa 0 mm - 374 W/m² -
1788013310 28.89° C 67% 1018.7 hPa 0 mm - 354 W/m² -
1788013010 28.89° C 65% 1018.8 hPa 0 mm - 336 W/m² -
1788012703 28.89° C 67% 1018.6 hPa 0 mm - 316 W/m² -
1788012399 28.33° C 69% 1018.6 hPa 0 mm - 302 W/m² -
1788012098 28.33° C 68% 1018.5 hPa 0 mm - 271 W/m² -
1788011793 27.78° C 70% 1018.2 hPa 0 mm - 88 W/m² -
1788011492 27.22° C 71% 1018.4 hPa 0 mm - 244 W/m² -
1788011187 27.22° C 71% 1018.4 hPa 0 mm - 205 W/m² -
1788010882 27.22° C 72% 1018.2 hPa 0 mm - 204 W/m² -
1788010582 26.67° C 72% 1018.2 hPa 0 mm - 189 W/m² -
1788010280 26.11° C 74% 1018.2 hPa 0 mm - 173 W/m² -
1788009975 26.11° C 74% 1018.2 hPa 0 mm - 157 W/m² -
1788009674 25.56° C 75% 1018 hPa 0 mm - 140 W/m² -
1788009373 25.56° C 75% 1018.2 hPa 0 mm - 126 W/m² -

* Rain latest hour (hover to see other rain measurements)
** Current wind speed in m/s (hover to see current wind gust speed)